sensor_id;sensor_type;location;lat;lon;timestamp;P1;durP1;ratioP1;P2;durP2;ratioP2
28545;SDS011;15749;49.606;8.738;2023-09-08T00:01:45;3.10;;;2.78;;
28545;SDS011;15749;49.606;8.738;2023-09-08T00:04:15;2.90;;;2.60;;
28545;SDS011;15749;49.606;8.738;2023-09-08T00:06:46;2.90;;;2.60;;
28545;SDS011;15749;49.606;8.738;2023-09-08T00:09:16;2.55;;;2.35;;
28545;SDS011;15749;49.606;8.738;2023-09-08T00:11:45;2.60;;;2.40;;
28545;SDS011;15749;49.606;8.738;2023-09-08T00:14:15;3.03;;;2.83;;
28545;SDS011;15749;49.606;8.738;2023-09-08T00:16:46;2.90;;;2.58;;
28545;SDS011;15749;49.606;8.738;2023-09-08T00:19:15;3.10;;;2.80;;
28545;SDS011;15749;49.606;8.738;2023-09-08T00:21:45;3.55;;;2.60;;
28545;SDS011;15749;49.606;8.738;2023-09-08T00:24:14;2.85;;;2.65;;
28545;SDS011;15749;49.606;8.738;2023-09-08T00:26:43;2.50;;;2.30;;
28545;SDS011;15749;49.606;8.738;2023-09-08T00:29:32;2.45;;;2.25;;
28545;SDS011;15749;49.606;8.738;2023-09-08T00:32:01;2.50;;;2.30;;
28545;SDS011;15749;49.606;8.738;2023-09-08T00:34:30;3.45;;;2.50;;
28545;SDS011;15749;49.606;8.738;2023-09-08T00:36:59;2.83;;;2.60;;
28545;SDS011;15749;49.606;8.738;2023-09-08T00:39:34;3.13;;;2.90;;
28545;SDS011;15749;49.606;8.738;2023-09-08T00:42:07;3.58;;;2.95;;
28545;SDS011;15749;49.606;8.738;2023-09-08T00:44:37;3.08;;;2.78;;
28545;SDS011;15749;49.606;8.738;2023-09-08T00:47:06;3.00;;;2.80;;
28545;SDS011;15749;49.606;8.738;2023-09-08T00:49:36;3.65;;;2.53;;
28545;SDS011;15749;49.606;8.738;2023-09-08T00:52:05;4.27;;;2.60;;
28545;SDS011;15749;49.606;8.738;2023-09-08T00:54:34;2.53;;;2.33;;
28545;SDS011;15749;49.606;8.738;2023-09-08T00:57:04;2.80;;;2.50;;
28545;SDS011;15749;49.606;8.738;2023-09-08T00:59:34;2.83;;;2.58;;
28545;SDS011;15749;49.606;8.738;2023-09-08T01:02:05;2.70;;;2.50;;
28545;SDS011;15749;49.606;8.738;2023-09-08T01:04:34;2.70;;;2.50;;
28545;SDS011;15749;49.606;8.738;2023-09-08T01:07:08;2.67;;;2.47;;
28545;SDS011;15749;49.606;8.738;2023-09-08T01:09:39;3.05;;;2.40;;
28545;SDS011;15749;49.606;8.738;2023-09-08T01:12:10;3.53;;;2.37;;
28545;SDS011;15749;49.606;8.738;2023-09-08T01:14:40;2.50;;;2.30;;
28545;SDS011;15749;49.606;8.738;2023-09-08T01:17:10;2.70;;;2.50;;
28545;SDS011;15749;49.606;8.738;2023-09-08T01:19:40;2.10;;;2.00;;
28545;SDS011;15749;49.606;8.738;2023-09-08T01:22:15;2.83;;;2.53;;
28545;SDS011;15749;49.606;8.738;2023-09-08T01:25:16;2.58;;;2.38;;
28545;SDS011;15749;49.606;8.738;2023-09-08T01:27:48;2.35;;;2.15;;
28545;SDS011;15749;49.606;8.738;2023-09-08T01:30:20;2.83;;;2.55;;
28545;SDS011;15749;49.606;8.738;2023-09-08T01:32:51;2.60;;;2.40;;
28545;SDS011;15749;49.606;8.738;2023-09-08T01:35:21;2.55;;;2.35;;
28545;SDS011;15749;49.606;8.738;2023-09-08T01:37:51;3.10;;;2.80;;
28545;SDS011;15749;49.606;8.738;2023-09-08T01:40:22;2.42;;;2.22;;
28545;SDS011;15749;49.606;8.738;2023-09-08T01:42:51;2.43;;;2.23;;
28545;SDS011;15749;49.606;8.738;2023-09-08T01:45:22;2.70;;;2.50;;
28545;SDS011;15749;49.606;8.738;2023-09-08T01:47:51;2.80;;;2.60;;
28545;SDS011;15749;49.606;8.738;2023-09-08T01:50:20;3.00;;;2.80;;
28545;SDS011;15749;49.606;8.738;2023-09-08T01:52:52;3.15;;;2.83;;
28545;SDS011;15749;49.606;8.738;2023-09-08T01:55:23;2.30;;;2.10;;
28545;SDS011;15749;49.606;8.738;2023-09-08T01:57:52;3.00;;;2.60;;
28545;SDS011;15749;49.606;8.738;2023-09-08T02:00:21;2.35;;;2.15;;
28545;SDS011;15749;49.606;8.738;2023-09-08T02:02:51;2.60;;;2.40;;
28545;SDS011;15749;49.606;8.738;2023-09-08T02:05:20;2.53;;;2.33;;
28545;SDS011;15749;49.606;8.738;2023-09-08T02:07:49;2.70;;;2.30;;
28545;SDS011;15749;49.606;8.738;2023-09-08T02:10:19;2.92;;;2.63;;
28545;SDS011;15749;49.606;8.738;2023-09-08T02:12:49;2.60;;;2.22;;
28545;SDS011;15749;49.606;8.738;2023-09-08T02:15:18;3.43;;;2.57;;
28545;SDS011;15749;49.606;8.738;2023-09-08T02:17:49;2.70;;;2.50;;
28545;SDS011;15749;49.606;8.738;2023-09-08T02:20:21;2.70;;;2.50;;
28545;SDS011;15749;49.606;8.738;2023-09-08T02:22:53;2.50;;;2.30;;
28545;SDS011;15749;49.606;8.738;2023-09-08T02:25:23;2.83;;;2.20;;
28545;SDS011;15749;49.606;8.738;2023-09-08T02:27:53;2.40;;;2.20;;
28545;SDS011;15749;49.606;8.738;2023-09-08T02:30:23;2.67;;;2.47;;
28545;SDS011;15749;49.606;8.738;2023-09-08T02:32:53;2.77;;;2.50;;
28545;SDS011;15749;49.606;8.738;2023-09-08T02:35:23;2.57;;;2.37;;
28545;SDS011;15749;49.606;8.738;2023-09-08T02:37:55;2.47;;;2.20;;
28545;SDS011;15749;49.606;8.738;2023-09-08T02:40:26;2.53;;;2.33;;
28545;SDS011;15749;49.606;8.738;2023-09-08T02:42:57;2.80;;;2.60;;
28545;SDS011;15749;49.606;8.738;2023-09-08T02:45:26;2.70;;;2.50;;
28545;SDS011;15749;49.606;8.738;2023-09-08T02:47:55;3.00;;;2.33;;
28545;SDS011;15749;49.606;8.738;2023-09-08T02:50:24;2.63;;;2.40;;
28545;SDS011;15749;49.606;8.738;2023-09-08T02:52:54;4.13;;;2.50;;
28545;SDS011;15749;49.606;8.738;2023-09-08T02:55:23;3.45;;;2.67;;
28545;SDS011;15749;49.606;8.738;2023-09-08T02:57:52;2.93;;;2.60;;
28545;SDS011;15749;49.606;8.738;2023-09-08T03:00:24;2.77;;;2.57;;
28545;SDS011;15749;49.606;8.738;2023-09-08T03:02:54;2.10;;;2.00;;
28545;SDS011;15749;49.606;8.738;2023-09-08T03:05:23;2.50;;;2.30;;
28545;SDS011;15749;49.606;8.738;2023-09-08T03:07:53;2.80;;;2.60;;
28545;SDS011;15749;49.606;8.738;2023-09-08T03:10:22;2.60;;;2.40;;
28545;SDS011;15749;49.606;8.738;2023-09-08T03:12:51;2.43;;;2.23;;
28545;SDS011;15749;49.606;8.738;2023-09-08T03:15:20;2.47;;;2.27;;
28545;SDS011;15749;49.606;8.738;2023-09-08T03:17:50;2.57;;;2.37;;
28545;SDS011;15749;49.606;8.738;2023-09-08T03:20:20;2.20;;;2.00;;
28545;SDS011;15749;49.606;8.738;2023-09-08T03:22:49;2.53;;;2.30;;
28545;SDS011;15749;49.606;8.738;2023-09-08T03:25:19;2.57;;;2.37;;
28545;SDS011;15749;49.606;8.738;2023-09-08T03:27:48;2.20;;;2.00;;
28545;SDS011;15749;49.606;8.738;2023-09-08T03:30:17;2.50;;;2.30;;
28545;SDS011;15749;49.606;8.738;2023-09-08T03:32:46;2.23;;;2.00;;
28545;SDS011;15749;49.606;8.738;2023-09-08T03:35:17;2.57;;;2.37;;
28545;SDS011;15749;49.606;8.738;2023-09-08T03:37:47;3.13;;;2.47;;
28545;SDS011;15749;49.606;8.738;2023-09-08T03:40:16;2.57;;;2.37;;
28545;SDS011;15749;49.606;8.738;2023-09-08T03:42:45;2.17;;;2.07;;
28545;SDS011;15749;49.606;8.738;2023-09-08T03:45:15;2.53;;;2.33;;
28545;SDS011;15749;49.606;8.738;2023-09-08T03:47:44;2.37;;;2.17;;
28545;SDS011;15749;49.606;8.738;2023-09-08T03:50:13;2.50;;;2.27;;
28545;SDS011;15749;49.606;8.738;2023-09-08T03:52:44;2.30;;;2.10;;
28545;SDS011;15749;49.606;8.738;2023-09-08T03:55:13;2.23;;;2.03;;
28545;SDS011;15749;49.606;8.738;2023-09-08T03:57:42;2.60;;;2.40;;
28545;SDS011;15749;49.606;8.738;2023-09-08T04:00:12;2.63;;;2.43;;
28545;SDS011;15749;49.606;8.738;2023-09-08T04:02:46;2.80;;;2.60;;
28545;SDS011;15749;49.606;8.738;2023-09-08T04:05:16;2.60;;;2.40;;
28545;SDS011;15749;49.606;8.738;2023-09-08T04:07:47;2.40;;;2.13;;
28545;SDS011;15749;49.606;8.738;2023-09-08T04:10:17;2.73;;;2.40;;
28545;SDS011;15749;49.606;8.738;2023-09-08T04:12:46;2.50;;;2.30;;
28545;SDS011;15749;49.606;8.738;2023-09-08T04:15:15;4.27;;;2.77;;
28545;SDS011;15749;49.606;8.738;2023-09-08T04:17:45;2.87;;;2.67;;
28545;SDS011;15749;49.606;8.738;2023-09-08T04:20:14;2.93;;;2.67;;
28545;SDS011;15749;49.606;8.738;2023-09-08T04:22:43;3.57;;;2.70;;
28545;SDS011;15749;49.606;8.738;2023-09-08T04:25:14;2.67;;;2.43;;
28545;SDS011;15749;49.606;8.738;2023-09-08T04:27:43;3.00;;;2.70;;
28545;SDS011;15749;49.606;8.738;2023-09-08T04:30:13;3.80;;;2.67;;
28545;SDS011;15749;49.606;8.738;2023-09-08T04:32:43;2.60;;;2.40;;
28545;SDS011;15749;49.606;8.738;2023-09-08T04:35:12;2.43;;;2.23;;
28545;SDS011;15749;49.606;8.738;2023-09-08T04:37:41;2.47;;;2.27;;
28545;SDS011;15749;49.606;8.738;2023-09-08T04:40:11;2.63;;;2.23;;
28545;SDS011;15749;49.606;8.738;2023-09-08T04:42:41;2.70;;;2.50;;
28545;SDS011;15749;49.606;8.738;2023-09-08T04:45:11;2.40;;;2.20;;
28545;SDS011;15749;49.606;8.738;2023-09-08T04:47:41;2.67;;;2.47;;
28545;SDS011;15749;49.606;8.738;2023-09-08T04:50:10;3.17;;;2.40;;
28545;SDS011;15749;49.606;8.738;2023-09-08T04:52:40;3.07;;;2.37;;
28545;SDS011;15749;49.606;8.738;2023-09-08T04:55:10;2.77;;;2.50;;
28545;SDS011;15749;49.606;8.738;2023-09-08T04:57:39;4.17;;;3.20;;
28545;SDS011;15749;49.606;8.738;2023-09-08T05:00:10;3.20;;;2.90;;
28545;SDS011;15749;49.606;8.738;2023-09-08T05:02:40;3.07;;;2.77;;
28545;SDS011;15749;49.606;8.738;2023-09-08T05:05:10;3.37;;;3.07;;
28545;SDS011;15749;49.606;8.738;2023-09-08T05:07:39;3.20;;;2.87;;
28545;SDS011;15749;49.606;8.738;2023-09-08T05:10:09;3.97;;;3.07;;
28545;SDS011;15749;49.606;8.738;2023-09-08T05:12:39;3.30;;;3.00;;
28545;SDS011;15749;49.606;8.738;2023-09-08T05:15:09;3.40;;;3.10;;
28545;SDS011;15749;49.606;8.738;2023-09-08T05:17:47;2.77;;;2.57;;
28545;SDS011;15749;49.606;8.738;2023-09-08T05:20:18;3.17;;;2.80;;
28545;SDS011;15749;49.606;8.738;2023-09-08T05:22:47;3.37;;;3.07;;
28545;SDS011;15749;49.606;8.738;2023-09-08T05:25:17;3.03;;;2.70;;
28545;SDS011;15749;49.606;8.738;2023-09-08T05:27:46;3.50;;;3.10;;
28545;SDS011;15749;49.606;8.738;2023-09-08T05:30:18;5.07;;;3.07;;
28545;SDS011;15749;49.606;8.738;2023-09-08T05:32:47;3.33;;;3.00;;
28545;SDS011;15749;49.606;8.738;2023-09-08T05:35:16;3.50;;;3.20;;
28545;SDS011;15749;49.606;8.738;2023-09-08T05:37:46;4.73;;;3.87;;
28545;SDS011;15749;49.606;8.738;2023-09-08T05:40:16;3.70;;;3.40;;
28545;SDS011;15749;49.606;8.738;2023-09-08T05:42:46;3.50;;;3.20;;
28545;SDS011;15749;49.606;8.738;2023-09-08T05:45:17;3.20;;;2.97;;
28545;SDS011;15749;49.606;8.738;2023-09-08T05:47:47;3.97;;;3.20;;
28545;SDS011;15749;49.606;8.738;2023-09-08T05:50:18;6.50;;;3.60;;
28545;SDS011;15749;49.606;8.738;2023-09-08T05:52:48;3.53;;;3.23;;
28545;SDS011;15749;49.606;8.738;2023-09-08T05:55:17;3.83;;;3.43;;
28545;SDS011;15749;49.606;8.738;2023-09-08T05:57:47;3.80;;;3.40;;
28545;SDS011;15749;49.606;8.738;2023-09-08T06:00:18;3.57;;;3.27;;
28545;SDS011;15749;49.606;8.738;2023-09-08T06:02:50;3.47;;;3.17;;
28545;SDS011;15749;49.606;8.738;2023-09-08T06:05:20;3.37;;;2.90;;
28545;SDS011;15749;49.606;8.738;2023-09-08T06:07:49;3.03;;;2.73;;
28545;SDS011;15749;49.606;8.738;2023-09-08T06:10:35;3.57;;;2.83;;
28545;SDS011;15749;49.606;8.738;2023-09-08T06:13:07;4.60;;;3.17;;
28545;SDS011;15749;49.606;8.738;2023-09-08T06:15:37;4.07;;;3.53;;
28545;SDS011;15749;49.606;8.738;2023-09-08T06:18:07;3.50;;;3.20;;
28545;SDS011;15749;49.606;8.738;2023-09-08T06:20:43;3.53;;;3.23;;
28545;SDS011;15749;49.606;8.738;2023-09-08T06:23:14;3.37;;;2.93;;
28545;SDS011;15749;49.606;8.738;2023-09-08T06:25:43;3.03;;;2.73;;
28545;SDS011;15749;49.606;8.738;2023-09-08T06:28:13;4.30;;;2.83;;
28545;SDS011;15749;49.606;8.738;2023-09-08T06:30:43;3.80;;;2.97;;
28545;SDS011;15749;49.606;8.738;2023-09-08T06:33:13;2.87;;;2.60;;
28545;SDS011;15749;49.606;8.738;2023-09-08T06:35:42;3.37;;;3.07;;
28545;SDS011;15749;49.606;8.738;2023-09-08T06:38:12;3.30;;;3.00;;
28545;SDS011;15749;49.606;8.738;2023-09-08T06:40:41;2.90;;;2.70;;
28545;SDS011;15749;49.606;8.738;2023-09-08T06:43:11;2.83;;;2.63;;
28545;SDS011;15749;49.606;8.738;2023-09-08T06:45:51;3.17;;;2.87;;
28545;SDS011;15749;49.606;8.738;2023-09-08T06:48:22;3.40;;;3.00;;
28545;SDS011;15749;49.606;8.738;2023-09-08T06:50:52;3.63;;;3.30;;
28545;SDS011;15749;49.606;8.738;2023-09-08T06:53:25;3.50;;;2.80;;
28545;SDS011;15749;49.606;8.738;2023-09-08T06:55:54;3.20;;;2.90;;
28545;SDS011;15749;49.606;8.738;2023-09-08T06:58:23;3.13;;;2.87;;
28545;SDS011;15749;49.606;8.738;2023-09-08T07:00:54;3.20;;;2.90;;
28545;SDS011;15749;49.606;8.738;2023-09-08T07:03:24;3.57;;;3.27;;
28545;SDS011;15749;49.606;8.738;2023-09-08T07:05:56;2.90;;;2.60;;
28545;SDS011;15749;49.606;8.738;2023-09-08T07:08:25;3.30;;;2.90;;
28545;SDS011;15749;49.606;8.738;2023-09-08T07:10:57;3.90;;;3.03;;
28545;SDS011;15749;49.606;8.738;2023-09-08T07:13:26;3.38;;;3.08;;
28545;SDS011;15749;49.606;8.738;2023-09-08T07:15:58;3.88;;;3.53;;
28545;SDS011;15749;49.606;8.738;2023-09-08T07:18:27;3.70;;;3.40;;
28545;SDS011;15749;49.606;8.738;2023-09-08T07:21:00;4.40;;;3.83;;
28545;SDS011;15749;49.606;8.738;2023-09-08T07:23:29;4.03;;;3.27;;
28545;SDS011;15749;49.606;8.738;2023-09-08T07:25:59;3.60;;;3.22;;
28545;SDS011;15749;49.606;8.738;2023-09-08T07:28:30;5.68;;;3.28;;
28545;SDS011;15749;49.606;8.738;2023-09-08T07:31:05;3.10;;;2.90;;
28545;SDS011;15749;49.606;8.738;2023-09-08T07:33:39;3.50;;;3.20;;
28545;SDS011;15749;49.606;8.738;2023-09-08T07:36:09;3.45;;;3.22;;
28545;SDS011;15749;49.606;8.738;2023-09-08T07:38:40;3.42;;;3.13;;
28545;SDS011;15749;49.606;8.738;2023-09-08T07:41:10;3.42;;;3.00;;
28545;SDS011;15749;49.606;8.738;2023-09-08T07:43:39;3.25;;;3.00;;
28545;SDS011;15749;49.606;8.738;2023-09-08T07:46:13;3.33;;;3.13;;
28545;SDS011;15749;49.606;8.738;2023-09-08T07:48:42;3.88;;;3.58;;
28545;SDS011;15749;49.606;8.738;2023-09-08T07:51:12;3.45;;;3.20;;
28545;SDS011;15749;49.606;8.738;2023-09-08T09:09:45;2.55;;;2.35;;
28545;SDS011;15749;49.606;8.738;2023-09-08T09:13:55;2.63;;;2.42;;
28545;SDS011;15749;49.606;8.738;2023-09-08T10:21:22;2.22;;;2.03;;
28545;SDS011;15749;49.606;8.738;2023-09-08T10:23:55;2.67;;;2.47;;
28545;SDS011;15749;49.606;8.738;2023-09-08T10:26:28;2.85;;;2.63;;
28545;SDS011;15749;49.606;8.738;2023-09-08T10:29:00;2.67;;;2.47;;
28545;SDS011;15749;49.606;8.738;2023-09-08T10:31:30;2.50;;;2.30;;
28545;SDS011;15749;49.606;8.738;2023-09-08T10:34:00;2.72;;;2.30;;
28545;SDS011;15749;49.606;8.738;2023-09-08T10:36:32;2.90;;;2.70;;
28545;SDS011;15749;49.606;8.738;2023-09-08T10:45:02;2.30;;;2.20;;
28545;SDS011;15749;49.606;8.738;2023-09-08T10:47:56;2.78;;;2.58;;
28545;SDS011;15749;49.606;8.738;2023-09-08T10:50:26;2.75;;;2.50;;
28545;SDS011;15749;49.606;8.738;2023-09-08T10:53:10;2.83;;;2.17;;
28545;SDS011;15749;49.606;8.738;2023-09-08T10:55:43;2.38;;;2.22;;
28545;SDS011;15749;49.606;8.738;2023-09-08T10:58:36;3.03;;;2.72;;
28545;SDS011;15749;49.606;8.738;2023-09-08T11:01:06;2.75;;;2.55;;
28545;SDS011;15749;49.606;8.738;2023-09-08T11:03:45;2.88;;;2.67;;
28545;SDS011;15749;49.606;8.738;2023-09-08T11:06:18;3.33;;;3.03;;
28545;SDS011;15749;49.606;8.738;2023-09-08T11:08:50;3.03;;;2.80;;
28545;SDS011;15749;49.606;8.738;2023-09-08T11:11:23;3.75;;;2.55;;
28545;SDS011;15749;49.606;8.738;2023-09-08T11:13:54;2.92;;;2.72;;
28545;SDS011;15749;49.606;8.738;2023-09-08T11:16:25;3.15;;;2.90;;
28545;SDS011;15749;49.606;8.738;2023-09-08T11:18:59;2.83;;;2.63;;
28545;SDS011;15749;49.606;8.738;2023-09-08T11:21:32;2.92;;;2.72;;
28545;SDS011;15749;49.606;8.738;2023-09-08T11:24:05;3.38;;;3.10;;
28545;SDS011;15749;49.606;8.738;2023-09-08T11:26:35;3.35;;;3.05;;
28545;SDS011;15749;49.606;8.738;2023-09-08T11:29:06;3.40;;;3.13;;
28545;SDS011;15749;49.606;8.738;2023-09-08T11:31:35;3.42;;;3.13;;
28545;SDS011;15749;49.606;8.738;2023-09-08T11:34:04;3.17;;;2.97;;
28545;SDS011;15749;49.606;8.738;2023-09-08T11:36:34;2.88;;;2.67;;
28545;SDS011;15749;49.606;8.738;2023-09-08T11:39:09;3.45;;;3.15;;
28545;SDS011;15749;49.606;8.738;2023-09-08T11:41:38;2.95;;;2.75;;
28545;SDS011;15749;49.606;8.738;2023-09-08T11:44:08;2.90;;;2.70;;
28545;SDS011;15749;49.606;8.738;2023-09-08T11:46:46;3.20;;;3.00;;
28545;SDS011;15749;49.606;8.738;2023-09-08T11:49:18;3.03;;;2.83;;
28545;SDS011;15749;49.606;8.738;2023-09-08T11:51:48;3.47;;;2.78;;
28545;SDS011;15749;49.606;8.738;2023-09-08T11:54:19;3.10;;;2.80;;
28545;SDS011;15749;49.606;8.738;2023-09-08T11:56:52;2.88;;;2.60;;
28545;SDS011;15749;49.606;8.738;2023-09-08T11:59:27;2.70;;;2.50;;
28545;SDS011;15749;49.606;8.738;2023-09-08T12:01:59;3.72;;;2.88;;
28545;SDS011;15749;49.606;8.738;2023-09-08T12:04:29;4.18;;;2.83;;
28545;SDS011;15749;49.606;8.738;2023-09-08T12:06:59;3.65;;;2.67;;
28545;SDS011;15749;49.606;8.738;2023-09-08T12:09:30;3.58;;;3.28;;
28545;SDS011;15749;49.606;8.738;2023-09-08T12:11:59;2.55;;;2.35;;
28545;SDS011;15749;49.606;8.738;2023-09-08T12:14:39;2.80;;;2.55;;
28545;SDS011;15749;49.606;8.738;2023-09-08T12:17:12;2.80;;;2.60;;
28545;SDS011;15749;49.606;8.738;2023-09-08T12:19:44;2.83;;;2.40;;
28545;SDS011;15749;49.606;8.738;2023-09-08T12:22:13;2.75;;;2.42;;
28545;SDS011;15749;49.606;8.738;2023-09-08T12:24:48;2.40;;;2.20;;
28545;SDS011;15749;49.606;8.738;2023-09-08T12:27:19;4.38;;;2.53;;
28545;SDS011;15749;49.606;8.738;2023-09-08T12:29:52;2.75;;;2.42;;
28545;SDS011;15749;49.606;8.738;2023-09-08T12:32:22;3.10;;;2.90;;
28545;SDS011;15749;49.606;8.738;2023-09-08T12:34:53;2.78;;;2.55;;
28545;SDS011;15749;49.606;8.738;2023-09-08T12:37:22;2.72;;;2.53;;
28545;SDS011;15749;49.606;8.738;2023-09-08T12:39:54;2.50;;;2.30;;
28545;SDS011;15749;49.606;8.738;2023-09-08T12:42:23;2.80;;;2.50;;
28545;SDS011;15749;49.606;8.738;2023-09-08T12:44:58;2.70;;;2.25;;
28545;SDS011;15749;49.606;8.738;2023-09-08T12:47:28;2.53;;;2.33;;
28545;SDS011;15749;49.606;8.738;2023-09-08T12:49:57;3.17;;;2.88;;
28545;SDS011;15749;49.606;8.738;2023-09-08T12:52:27;2.95;;;2.75;;
28545;SDS011;15749;49.606;8.738;2023-09-08T12:55:03;3.15;;;2.88;;
28545;SDS011;15749;49.606;8.738;2023-09-08T12:57:34;3.10;;;2.90;;
28545;SDS011;15749;49.606;8.738;2023-09-08T13:00:04;3.35;;;3.05;;
28545;SDS011;15749;49.606;8.738;2023-09-08T13:02:34;2.83;;;2.60;;
28545;SDS011;15749;49.606;8.738;2023-09-08T13:05:04;2.58;;;2.38;;
28545;SDS011;15749;49.606;8.738;2023-09-08T13:07:35;3.20;;;2.83;;
28545;SDS011;15749;49.606;8.738;2023-09-08T13:10:09;3.35;;;2.90;;
28545;SDS011;15749;49.606;8.738;2023-09-08T13:12:39;3.30;;;2.53;;
28545;SDS011;15749;49.606;8.738;2023-09-08T13:15:09;2.70;;;2.50;;
28545;SDS011;15749;49.606;8.738;2023-09-08T13:17:39;2.90;;;2.70;;
28545;SDS011;15749;49.606;8.738;2023-09-08T13:20:09;2.58;;;2.30;;
28545;SDS011;15749;49.606;8.738;2023-09-08T13:22:39;2.78;;;2.50;;
28545;SDS011;15749;49.606;8.738;2023-09-08T13:25:10;4.30;;;2.65;;
28545;SDS011;15749;49.606;8.738;2023-09-08T13:27:40;3.28;;;2.78;;
28545;SDS011;15749;49.606;8.738;2023-09-08T13:30:10;6.45;;;2.90;;
28545;SDS011;15749;49.606;8.738;2023-09-08T13:32:40;2.80;;;2.58;;
28545;SDS011;15749;49.606;8.738;2023-09-08T13:35:10;2.58;;;2.38;;
28545;SDS011;15749;49.606;8.738;2023-09-08T13:37:39;2.80;;;2.60;;
28545;SDS011;15749;49.606;8.738;2023-09-08T13:40:11;3.95;;;2.58;;
28545;SDS011;15749;49.606;8.738;2023-09-08T13:42:41;3.00;;;2.80;;
28545;SDS011;15749;49.606;8.738;2023-09-08T13:45:12;3.22;;;2.88;;
28545;SDS011;15749;49.606;8.738;2023-09-08T13:47:41;2.75;;;2.55;;
28545;SDS011;15749;49.606;8.738;2023-09-08T13:50:12;2.22;;;2.13;;
28545;SDS011;15749;49.606;8.738;2023-09-08T13:52:44;2.67;;;2.47;;
28545;SDS011;15749;49.606;8.738;2023-09-08T13:55:19;2.92;;;2.63;;
28545;SDS011;15749;49.606;8.738;2023-09-08T13:58:04;2.85;;;2.65;;
28545;SDS011;15749;49.606;8.738;2023-09-08T14:00:36;2.67;;;2.47;;
28545;SDS011;15749;49.606;8.738;2023-09-08T14:06:20;2.90;;;2.60;;
28545;SDS011;15749;49.606;8.738;2023-09-08T14:08:56;2.53;;;2.30;;
28545;SDS011;15749;49.606;8.738;2023-09-08T14:11:29;2.55;;;2.35;;
28545;SDS011;15749;49.606;8.738;2023-09-08T14:14:01;2.65;;;2.45;;
28545;SDS011;15749;49.606;8.738;2023-09-08T14:16:31;2.85;;;2.65;;
28545;SDS011;15749;49.606;8.738;2023-09-08T14:18:59;2.65;;;2.42;;
28545;SDS011;15749;49.606;8.738;2023-09-08T14:21:28;2.53;;;2.33;;
28545;SDS011;15749;49.606;8.738;2023-09-08T14:23:58;2.50;;;2.17;;
28545;SDS011;15749;49.606;8.738;2023-09-08T14:26:27;2.70;;;2.50;;
28545;SDS011;15749;49.606;8.738;2023-09-08T14:28:58;3.67;;;2.50;;
28545;SDS011;15749;49.606;8.738;2023-09-08T14:31:27;2.65;;;2.45;;
28545;SDS011;15749;49.606;8.738;2023-09-08T14:33:57;2.85;;;2.60;;
28545;SDS011;15749;49.606;8.738;2023-09-08T14:36:26;4.18;;;2.55;;
28545;SDS011;15749;49.606;8.738;2023-09-08T14:38:54;2.83;;;2.45;;
28545;SDS011;15749;49.606;8.738;2023-09-08T14:41:24;2.65;;;2.45;;
28545;SDS011;15749;49.606;8.738;2023-09-08T14:43:54;2.60;;;2.40;;
28545;SDS011;15749;49.606;8.738;2023-09-08T14:46:23;2.70;;;2.50;;
28545;SDS011;15749;49.606;8.738;2023-09-08T14:48:52;2.90;;;2.70;;
28545;SDS011;15749;49.606;8.738;2023-09-08T14:51:22;2.72;;;2.40;;
28545;SDS011;15749;49.606;8.738;2023-09-08T14:53:51;2.80;;;2.60;;
28545;SDS011;15749;49.606;8.738;2023-09-08T14:56:20;3.05;;;2.78;;
28545;SDS011;15749;49.606;8.738;2023-09-08T14:58:48;2.60;;;2.40;;
28545;SDS011;15749;49.606;8.738;2023-09-08T15:01:19;2.45;;;2.25;;
28545;SDS011;15749;49.606;8.738;2023-09-08T15:03:47;2.60;;;2.40;;
28545;SDS011;15749;49.606;8.738;2023-09-08T15:06:16;2.33;;;2.13;;
28545;SDS011;15749;49.606;8.738;2023-09-08T15:08:48;2.88;;;2.67;;
28545;SDS011;15749;49.606;8.738;2023-09-08T15:11:17;2.55;;;2.35;;
28545;SDS011;15749;49.606;8.738;2023-09-08T15:13:45;2.38;;;2.22;;
28545;SDS011;15749;49.606;8.738;2023-09-08T15:16:15;2.80;;;2.60;;
28545;SDS011;15749;49.606;8.738;2023-09-08T15:18:48;3.03;;;2.67;;
28545;SDS011;15749;49.606;8.738;2023-09-08T15:21:18;2.20;;;2.10;;
28545;SDS011;15749;49.606;8.738;2023-09-08T15:23:52;2.70;;;2.50;;
28545;SDS011;15749;49.606;8.738;2023-09-08T15:26:21;2.47;;;2.28;;
28545;SDS011;15749;49.606;8.738;2023-09-08T15:28:50;2.92;;;2.55;;
28545;SDS011;15749;49.606;8.738;2023-09-08T15:31:19;2.63;;;2.40;;
28545;SDS011;15749;49.606;8.738;2023-09-08T15:33:49;2.70;;;2.50;;
28545;SDS011;15749;49.606;8.738;2023-09-08T15:36:19;2.63;;;2.35;;
28545;SDS011;15749;49.606;8.738;2023-09-08T15:38:48;2.70;;;2.50;;
28545;SDS011;15749;49.606;8.738;2023-09-08T15:41:17;2.83;;;2.40;;
28545;SDS011;15749;49.606;8.738;2023-09-08T15:43:48;3.65;;;2.58;;
28545;SDS011;15749;49.606;8.738;2023-09-08T15:46:18;2.85;;;2.65;;
28545;SDS011;15749;49.606;8.738;2023-09-08T15:48:47;3.83;;;2.60;;
28545;SDS011;15749;49.606;8.738;2023-09-08T15:51:18;2.78;;;2.58;;
28545;SDS011;15749;49.606;8.738;2023-09-08T15:53:46;2.90;;;2.60;;
28545;SDS011;15749;49.606;8.738;2023-09-08T15:56:15;2.80;;;2.60;;
28545;SDS011;15749;49.606;8.738;2023-09-08T15:58:44;2.65;;;2.45;;
28545;SDS011;15749;49.606;8.738;2023-09-08T16:01:13;3.00;;;2.70;;
28545;SDS011;15749;49.606;8.738;2023-09-08T16:03:42;3.30;;;2.95;;
28545;SDS011;15749;49.606;8.738;2023-09-08T16:06:14;3.20;;;3.00;;
28545;SDS011;15749;49.606;8.738;2023-09-08T16:08:45;2.97;;;2.78;;
28545;SDS011;15749;49.606;8.738;2023-09-08T16:11:15;2.90;;;2.70;;
28545;SDS011;15749;49.606;8.738;2023-09-08T16:13:44;3.13;;;2.80;;
28545;SDS011;15749;49.606;8.738;2023-09-08T16:16:13;4.85;;;2.70;;
28545;SDS011;15749;49.606;8.738;2023-09-08T16:18:43;2.90;;;2.70;;
28545;SDS011;15749;49.606;8.738;2023-09-08T16:21:12;2.97;;;2.67;;
28545;SDS011;15749;49.606;8.738;2023-09-08T16:23:42;3.03;;;2.75;;
28545;SDS011;15749;49.606;8.738;2023-09-08T16:26:13;3.30;;;2.70;;
28545;SDS011;15749;49.606;8.738;2023-09-08T16:28:42;2.95;;;2.75;;
28545;SDS011;15749;49.606;8.738;2023-09-08T16:31:11;2.90;;;2.70;;
28545;SDS011;15749;49.606;8.738;2023-09-08T16:33:40;2.85;;;2.65;;
28545;SDS011;15749;49.606;8.738;2023-09-08T16:36:09;3.83;;;2.97;;
28545;SDS011;15749;49.606;8.738;2023-09-08T16:38:38;5.80;;;3.10;;
28545;SDS011;15749;49.606;8.738;2023-09-08T16:41:08;3.25;;;2.95;;
28545;SDS011;15749;49.606;8.738;2023-09-08T16:43:39;2.88;;;2.67;;
28545;SDS011;15749;49.606;8.738;2023-09-08T16:46:07;3.25;;;2.70;;
28545;SDS011;15749;49.606;8.738;2023-09-08T16:48:36;3.67;;;2.70;;
28545;SDS011;15749;49.606;8.738;2023-09-08T16:51:05;2.60;;;2.40;;
28545;SDS011;15749;49.606;8.738;2023-09-08T16:53:34;3.80;;;3.20;;
28545;SDS011;15749;49.606;8.738;2023-09-08T16:56:03;2.85;;;2.65;;
28545;SDS011;15749;49.606;8.738;2023-09-08T16:58:37;2.60;;;2.40;;
28545;SDS011;15749;49.606;8.738;2023-09-08T17:01:06;2.90;;;2.53;;
28545;SDS011;15749;49.606;8.738;2023-09-08T17:03:35;3.03;;;2.72;;
28545;SDS011;15749;49.606;8.738;2023-09-08T17:06:04;3.03;;;2.78;;
28545;SDS011;15749;49.606;8.738;2023-09-08T17:08:33;2.75;;;2.55;;
28545;SDS011;15749;49.606;8.738;2023-09-08T17:11:02;3.00;;;2.80;;
28545;SDS011;15749;49.606;8.738;2023-09-08T17:13:31;3.08;;;2.88;;
28545;SDS011;15749;49.606;8.738;2023-09-08T17:16:05;3.05;;;2.85;;
28545;SDS011;15749;49.606;8.738;2023-09-08T17:18:34;3.33;;;3.03;;
28545;SDS011;15749;49.606;8.738;2023-09-08T17:21:03;3.20;;;2.92;;
28545;SDS011;15749;49.606;8.738;2023-09-08T17:23:32;3.10;;;2.90;;
28545;SDS011;15749;49.606;8.738;2023-09-08T17:26:01;5.25;;;3.05;;
28545;SDS011;15749;49.606;8.738;2023-09-08T17:28:30;3.67;;;3.10;;
28545;SDS011;15749;49.606;8.738;2023-09-08T17:31:01;3.15;;;2.85;;
28545;SDS011;15749;49.606;8.738;2023-09-08T17:33:33;3.30;;;3.03;;
28545;SDS011;15749;49.606;8.738;2023-09-08T17:36:03;2.60;;;2.40;;
28545;SDS011;15749;49.606;8.738;2023-09-08T17:38:34;3.60;;;3.30;;
28545;SDS011;15749;49.606;8.738;2023-09-08T17:41:05;4.10;;;3.70;;